sensor_id;sensor_type;location;lat;lon;timestamp;P1;durP1;ratioP1;P2;durP2;ratioP2
18929;SDS011;43305;52.186;5.598;2022-07-18T00:00:12;10.98;;;5.57;;
18929;SDS011;43305;52.186;5.598;2022-07-18T00:02:39;10.85;;;5.30;;
18929;SDS011;43305;52.186;5.598;2022-07-18T00:05:06;11.00;;;5.80;;
18929;SDS011;43305;52.186;5.598;2022-07-18T00:07:34;9.27;;;5.50;;
18929;SDS011;43305;52.186;5.598;2022-07-18T00:10:01;8.13;;;5.07;;
18929;SDS011;43305;52.186;5.598;2022-07-18T00:12:27;10.90;;;6.05;;
18929;SDS011;43305;52.186;5.598;2022-07-18T00:14:56;9.00;;;4.75;;
18929;SDS011;43305;52.186;5.598;2022-07-18T00:17:23;8.80;;;4.70;;
18929;SDS011;43305;52.186;5.598;2022-07-18T00:19:50;9.98;;;5.25;;
18929;SDS011;43305;52.186;5.598;2022-07-18T00:22:17;9.52;;;5.20;;
18929;SDS011;43305;52.186;5.598;2022-07-18T00:24:44;9.40;;;5.50;;
18929;SDS011;43305;52.186;5.598;2022-07-18T00:27:11;9.13;;;5.15;;
18929;SDS011;43305;52.186;5.598;2022-07-18T00:29:38;10.32;;;4.75;;
18929;SDS011;43305;52.186;5.598;2022-07-18T00:32:07;10.98;;;5.35;;
18929;SDS011;43305;52.186;5.598;2022-07-18T00:34:35;9.18;;;4.95;;
18929;SDS011;43305;52.186;5.598;2022-07-18T00:37:01;7.82;;;4.72;;
18929;SDS011;43305;52.186;5.598;2022-07-18T00:39:28;8.90;;;4.68;;
18929;SDS011;43305;52.186;5.598;2022-07-18T00:41:55;9.70;;;5.03;;
18929;SDS011;43305;52.186;5.598;2022-07-18T00:44:23;9.48;;;5.05;;
18929;SDS011;43305;52.186;5.598;2022-07-18T00:46:51;9.35;;;4.95;;
18929;SDS011;43305;52.186;5.598;2022-07-18T00:49:21;8.25;;;4.75;;
18929;SDS011;43305;52.186;5.598;2022-07-18T00:51:49;9.05;;;4.88;;
18929;SDS011;43305;52.186;5.598;2022-07-18T00:54:15;8.57;;;4.90;;
18929;SDS011;43305;52.186;5.598;2022-07-18T00:56:43;9.60;;;5.38;;
18929;SDS011;43305;52.186;5.598;2022-07-18T00:59:11;9.68;;;5.15;;
18929;SDS011;43305;52.186;5.598;2022-07-18T01:01:39;8.07;;;4.75;;
18929;SDS011;43305;52.186;5.598;2022-07-18T01:04:08;8.00;;;4.80;;
18929;SDS011;43305;52.186;5.598;2022-07-18T01:06:37;8.38;;;4.35;;
18929;SDS011;43305;52.186;5.598;2022-07-18T01:09:04;8.85;;;5.43;;
18929;SDS011;43305;52.186;5.598;2022-07-18T01:11:32;8.13;;;5.15;;
18929;SDS011;43305;52.186;5.598;2022-07-18T01:13:59;10.20;;;5.03;;
18929;SDS011;43305;52.186;5.598;2022-07-18T01:16:28;7.88;;;4.78;;
18929;SDS011;43305;52.186;5.598;2022-07-18T01:18:55;8.07;;;4.63;;
18929;SDS011;43305;52.186;5.598;2022-07-18T01:21:24;7.93;;;4.60;;
18929;SDS011;43305;52.186;5.598;2022-07-18T01:23:51;8.68;;;4.75;;
18929;SDS011;43305;52.186;5.598;2022-07-18T01:26:18;7.05;;;4.28;;
18929;SDS011;43305;52.186;5.598;2022-07-18T01:28:45;7.97;;;4.63;;
18929;SDS011;43305;52.186;5.598;2022-07-18T01:31:12;6.65;;;4.22;;
18929;SDS011;43305;52.186;5.598;2022-07-18T01:33:40;7.47;;;4.55;;
18929;SDS011;43305;52.186;5.598;2022-07-18T01:36:07;6.65;;;4.25;;
18929;SDS011;43305;52.186;5.598;2022-07-18T01:38:36;7.72;;;3.95;;
18929;SDS011;43305;52.186;5.598;2022-07-18T01:41:03;8.80;;;4.40;;
18929;SDS011;43305;52.186;5.598;2022-07-18T01:43:31;5.13;;;3.45;;
18929;SDS011;43305;52.186;5.598;2022-07-18T01:45:58;8.32;;;4.32;;
18929;SDS011;43305;52.186;5.598;2022-07-18T01:48:26;6.38;;;3.95;;
18929;SDS011;43305;52.186;5.598;2022-07-18T01:50:53;7.47;;;4.32;;
18929;SDS011;43305;52.186;5.598;2022-07-18T01:53:19;7.35;;;4.20;;
18929;SDS011;43305;52.186;5.598;2022-07-18T01:55:50;6.10;;;3.70;;
18929;SDS011;43305;52.186;5.598;2022-07-18T01:58:19;9.85;;;4.43;;
18929;SDS011;43305;52.186;5.598;2022-07-18T02:00:46;8.25;;;4.30;;
18929;SDS011;43305;52.186;5.598;2022-07-18T02:03:13;10.30;;;4.20;;
18929;SDS011;43305;52.186;5.598;2022-07-18T02:05:39;7.53;;;4.28;;
18929;SDS011;43305;52.186;5.598;2022-07-18T02:08:07;6.88;;;3.95;;
18929;SDS011;43305;52.186;5.598;2022-07-18T02:10:34;7.38;;;4.38;;
18929;SDS011;43305;52.186;5.598;2022-07-18T02:13:02;8.07;;;4.13;;
18929;SDS011;43305;52.186;5.598;2022-07-18T02:15:29;8.18;;;4.00;;
18929;SDS011;43305;52.186;5.598;2022-07-18T02:20:41;7.82;;;4.07;;
18929;SDS011;43305;52.186;5.598;2022-07-18T02:23:08;6.60;;;4.03;;
18929;SDS011;43305;52.186;5.598;2022-07-18T02:25:35;7.53;;;4.20;;
18929;SDS011;43305;52.186;5.598;2022-07-18T02:28:03;7.72;;;4.32;;
18929;SDS011;43305;52.186;5.598;2022-07-18T02:30:31;7.22;;;4.28;;
18929;SDS011;43305;52.186;5.598;2022-07-18T02:32:58;7.53;;;4.20;;
18929;SDS011;43305;52.186;5.598;2022-07-18T02:35:24;7.28;;;4.07;;
18929;SDS011;43305;52.186;5.598;2022-07-18T02:37:51;6.70;;;3.92;;
18929;SDS011;43305;52.186;5.598;2022-07-18T02:40:18;6.38;;;3.60;;
18929;SDS011;43305;52.186;5.598;2022-07-18T02:42:45;8.63;;;4.13;;
18929;SDS011;43305;52.186;5.598;2022-07-18T02:45:14;8.13;;;4.10;;
18929;SDS011;43305;52.186;5.598;2022-07-18T02:47:41;7.95;;;4.00;;
18929;SDS011;43305;52.186;5.598;2022-07-18T02:50:10;7.43;;;4.13;;
18929;SDS011;43305;52.186;5.598;2022-07-18T02:52:38;8.20;;;3.92;;
18929;SDS011;43305;52.186;5.598;2022-07-18T02:55:06;7.78;;;4.18;;
18929;SDS011;43305;52.186;5.598;2022-07-18T02:57:34;8.45;;;4.05;;
18929;SDS011;43305;52.186;5.598;2022-07-18T03:00:01;7.47;;;4.35;;
18929;SDS011;43305;52.186;5.598;2022-07-18T03:02:30;7.10;;;3.97;;
18929;SDS011;43305;52.186;5.598;2022-07-18T03:04:57;9.23;;;4.25;;
18929;SDS011;43305;52.186;5.598;2022-07-18T03:07:24;11.23;;;4.45;;
18929;SDS011;43305;52.186;5.598;2022-07-18T03:09:51;8.75;;;4.43;;
18929;SDS011;43305;52.186;5.598;2022-07-18T03:12:18;6.65;;;4.05;;
18929;SDS011;43305;52.186;5.598;2022-07-18T03:14:45;8.98;;;4.20;;
18929;SDS011;43305;52.186;5.598;2022-07-18T03:17:12;7.28;;;3.92;;
18929;SDS011;43305;52.186;5.598;2022-07-18T03:19:40;7.15;;;3.97;;
18929;SDS011;43305;52.186;5.598;2022-07-18T03:22:06;8.82;;;4.20;;
18929;SDS011;43305;52.186;5.598;2022-07-18T03:24:33;7.85;;;4.25;;
18929;SDS011;43305;52.186;5.598;2022-07-18T03:27:00;8.45;;;4.38;;
18929;SDS011;43305;52.186;5.598;2022-07-18T03:29:27;7.10;;;4.25;;
18929;SDS011;43305;52.186;5.598;2022-07-18T03:31:54;8.88;;;4.07;;
18929;SDS011;43305;52.186;5.598;2022-07-18T03:34:22;7.80;;;4.47;;
18929;SDS011;43305;52.186;5.598;2022-07-18T03:36:51;6.45;;;4.10;;
18929;SDS011;43305;52.186;5.598;2022-07-18T03:39:18;7.07;;;4.00;;
18929;SDS011;43305;52.186;5.598;2022-07-18T03:41:44;8.57;;;4.32;;
18929;SDS011;43305;52.186;5.598;2022-07-18T03:44:11;7.32;;;4.22;;
18929;SDS011;43305;52.186;5.598;2022-07-18T03:46:38;9.82;;;4.20;;
18929;SDS011;43305;52.186;5.598;2022-07-18T03:49:05;8.35;;;4.20;;
18929;SDS011;43305;52.186;5.598;2022-07-18T03:51:31;8.90;;;4.05;;
18929;SDS011;43305;52.186;5.598;2022-07-18T03:54:00;8.25;;;4.32;;
18929;SDS011;43305;52.186;5.598;2022-07-18T03:56:27;6.68;;;3.95;;
18929;SDS011;43305;52.186;5.598;2022-07-18T03:58:54;8.07;;;4.38;;
18929;SDS011;43305;52.186;5.598;2022-07-18T04:01:21;6.75;;;3.88;;
18929;SDS011;43305;52.186;5.598;2022-07-18T04:03:48;7.85;;;4.43;;
18929;SDS011;43305;52.186;5.598;2022-07-18T04:06:15;6.63;;;4.00;;
18929;SDS011;43305;52.186;5.598;2022-07-18T04:08:42;9.02;;;4.30;;
18929;SDS011;43305;52.186;5.598;2022-07-18T04:11:10;7.75;;;4.57;;
18929;SDS011;43305;52.186;5.598;2022-07-18T04:13:40;10.77;;;4.53;;
18929;SDS011;43305;52.186;5.598;2022-07-18T04:16:07;7.30;;;4.40;;
18929;SDS011;43305;52.186;5.598;2022-07-18T04:18:34;13.43;;;4.30;;
18929;SDS011;43305;52.186;5.598;2022-07-18T04:21:16;7.45;;;4.43;;
18929;SDS011;43305;52.186;5.598;2022-07-18T04:23:45;7.20;;;4.35;;
18929;SDS011;43305;52.186;5.598;2022-07-18T04:26:22;7.97;;;4.20;;
18929;SDS011;43305;52.186;5.598;2022-07-18T04:28:49;9.40;;;4.15;;
18929;SDS011;43305;52.186;5.598;2022-07-18T04:31:19;8.43;;;3.63;;
18929;SDS011;43305;52.186;5.598;2022-07-18T04:33:46;7.82;;;4.10;;
18929;SDS011;43305;52.186;5.598;2022-07-18T04:36:13;6.05;;;3.67;;
18929;SDS011;43305;52.186;5.598;2022-07-18T04:38:39;6.65;;;3.90;;
18929;SDS011;43305;52.186;5.598;2022-07-18T04:41:06;11.20;;;4.80;;
18929;SDS011;43305;52.186;5.598;2022-07-18T04:43:35;7.63;;;4.03;;
18929;SDS011;43305;52.186;5.598;2022-07-18T04:46:02;7.18;;;4.00;;
18929;SDS011;43305;52.186;5.598;2022-07-18T04:48:29;9.45;;;4.05;;
18929;SDS011;43305;52.186;5.598;2022-07-18T04:50:56;9.80;;;3.80;;
18929;SDS011;43305;52.186;5.598;2022-07-18T04:53:23;9.25;;;4.47;;
18929;SDS011;43305;52.186;5.598;2022-07-18T04:55:49;6.10;;;3.70;;
18929;SDS011;43305;52.186;5.598;2022-07-18T04:58:16;8.13;;;3.78;;
18929;SDS011;43305;52.186;5.598;2022-07-18T05:00:45;6.55;;;3.88;;
18929;SDS011;43305;52.186;5.598;2022-07-18T05:03:13;7.10;;;3.92;;
18929;SDS011;43305;52.186;5.598;2022-07-18T05:05:40;7.53;;;4.00;;
18929;SDS011;43305;52.186;5.598;2022-07-18T05:08:06;9.18;;;4.20;;
18929;SDS011;43305;52.186;5.598;2022-07-18T05:10:36;8.02;;;3.75;;
18929;SDS011;43305;52.186;5.598;2022-07-18T05:13:03;7.13;;;4.18;;
18929;SDS011;43305;52.186;5.598;2022-07-18T05:15:30;7.10;;;4.05;;
18929;SDS011;43305;52.186;5.598;2022-07-18T05:17:58;10.68;;;4.35;;
18929;SDS011;43305;52.186;5.598;2022-07-18T05:20:25;7.22;;;4.20;;
18929;SDS011;43305;52.186;5.598;2022-07-18T05:22:53;8.20;;;4.13;;
18929;SDS011;43305;52.186;5.598;2022-07-18T05:25:20;11.25;;;4.63;;
18929;SDS011;43305;52.186;5.598;2022-07-18T05:27:48;8.70;;;4.57;;
18929;SDS011;43305;52.186;5.598;2022-07-18T05:30:15;6.47;;;3.83;;
18929;SDS011;43305;52.186;5.598;2022-07-18T05:32:42;9.18;;;4.50;;
18929;SDS011;43305;52.186;5.598;2022-07-18T05:35:12;8.70;;;4.40;;
18929;SDS011;43305;52.186;5.598;2022-07-18T05:37:40;9.90;;;4.32;;
18929;SDS011;43305;52.186;5.598;2022-07-18T05:40:08;15.48;;;4.70;;
18929;SDS011;43305;52.186;5.598;2022-07-18T05:42:36;8.32;;;4.45;;
18929;SDS011;43305;52.186;5.598;2022-07-18T05:45:04;8.45;;;4.20;;
18929;SDS011;43305;52.186;5.598;2022-07-18T05:47:31;11.63;;;4.43;;
18929;SDS011;43305;52.186;5.598;2022-07-18T05:49:59;10.32;;;4.28;;
18929;SDS011;43305;52.186;5.598;2022-07-18T05:52:27;10.85;;;4.85;;
18929;SDS011;43305;52.186;5.598;2022-07-18T05:54:54;9.50;;;4.25;;
18929;SDS011;43305;52.186;5.598;2022-07-18T05:57:21;8.73;;;4.53;;
18929;SDS011;43305;52.186;5.598;2022-07-18T05:59:48;10.63;;;4.30;;
18929;SDS011;43305;52.186;5.598;2022-07-18T06:02:15;7.63;;;4.03;;
18929;SDS011;43305;52.186;5.598;2022-07-18T06:04:41;9.02;;;3.83;;
18929;SDS011;43305;52.186;5.598;2022-07-18T06:07:08;9.23;;;4.38;;
18929;SDS011;43305;52.186;5.598;2022-07-18T06:09:36;11.95;;;3.80;;
18929;SDS011;43305;52.186;5.598;2022-07-18T06:12:03;10.60;;;4.45;;
18929;SDS011;43305;52.186;5.598;2022-07-18T06:14:31;9.13;;;4.35;;
18929;SDS011;43305;52.186;5.598;2022-07-18T06:16:58;13.27;;;4.45;;
18929;SDS011;43305;52.186;5.598;2022-07-18T06:19:25;9.20;;;4.00;;
18929;SDS011;43305;52.186;5.598;2022-07-18T06:21:52;6.10;;;3.70;;
18929;SDS011;43305;52.186;5.598;2022-07-18T06:24:19;7.78;;;3.70;;
18929;SDS011;43305;52.186;5.598;2022-07-18T06:26:48;8.68;;;3.88;;
18929;SDS011;43305;52.186;5.598;2022-07-18T06:29:15;6.75;;;3.80;;
18929;SDS011;43305;52.186;5.598;2022-07-18T06:31:42;9.65;;;4.07;;
18929;SDS011;43305;52.186;5.598;2022-07-18T06:34:10;6.47;;;3.83;;
18929;SDS011;43305;52.186;5.598;2022-07-18T06:36:36;9.32;;;3.70;;
18929;SDS011;43305;52.186;5.598;2022-07-18T06:39:03;6.10;;;3.67;;
18929;SDS011;43305;52.186;5.598;2022-07-18T06:41:35;10.75;;;3.88;;
18929;SDS011;43305;52.186;5.598;2022-07-18T06:44:04;12.32;;;4.07;;
18929;SDS011;43305;52.186;5.598;2022-07-18T06:46:31;7.32;;;3.67;;
18929;SDS011;43305;52.186;5.598;2022-07-18T06:48:58;9.98;;;4.07;;
18929;SDS011;43305;52.186;5.598;2022-07-18T06:51:25;8.95;;;3.58;;
18929;SDS011;43305;52.186;5.598;2022-07-18T06:53:52;10.55;;;3.35;;
18929;SDS011;43305;52.186;5.598;2022-07-18T06:56:19;9.00;;;3.35;;
18929;SDS011;43305;52.186;5.598;2022-07-18T06:58:46;7.68;;;3.50;;
18929;SDS011;43305;52.186;5.598;2022-07-18T07:01:17;17.33;;;3.92;;
18929;SDS011;43305;52.186;5.598;2022-07-18T07:03:46;12.10;;;3.80;;
18929;SDS011;43305;52.186;5.598;2022-07-18T07:06:13;13.70;;;4.50;;
18929;SDS011;43305;52.186;5.598;2022-07-18T07:08:41;12.25;;;4.00;;
18929;SDS011;43305;52.186;5.598;2022-07-18T07:11:08;7.75;;;4.20;;
18929;SDS011;43305;52.186;5.598;2022-07-18T07:13:35;10.95;;;4.07;;
18929;SDS011;43305;52.186;5.598;2022-07-18T07:16:02;11.88;;;4.40;;
18929;SDS011;43305;52.186;5.598;2022-07-18T07:18:31;8.55;;;3.80;;
18929;SDS011;43305;52.186;5.598;2022-07-18T07:20:58;8.90;;;3.75;;
18929;SDS011;43305;52.186;5.598;2022-07-18T07:23:25;7.63;;;3.47;;
18929;SDS011;43305;52.186;5.598;2022-07-18T07:25:52;6.68;;;3.55;;
18929;SDS011;43305;52.186;5.598;2022-07-18T07:28:19;7.65;;;3.45;;
18929;SDS011;43305;52.186;5.598;2022-07-18T07:30:46;11.10;;;3.60;;
18929;SDS011;43305;52.186;5.598;2022-07-18T07:33:13;7.88;;;3.25;;
18929;SDS011;43305;52.186;5.598;2022-07-18T07:35:43;9.57;;;2.95;;
18929;SDS011;43305;52.186;5.598;2022-07-18T07:38:13;7.53;;;2.88;;
18929;SDS011;43305;52.186;5.598;2022-07-18T07:40:44;8.48;;;2.97;;
18929;SDS011;43305;52.186;5.598;2022-07-18T07:43:12;8.32;;;2.58;;
18929;SDS011;43305;52.186;5.598;2022-07-18T07:45:41;6.75;;;2.75;;
18929;SDS011;43305;52.186;5.598;2022-07-18T07:48:08;7.93;;;2.42;;
18929;SDS011;43305;52.186;5.598;2022-07-18T07:50:35;8.95;;;2.90;;
18929;SDS011;43305;52.186;5.598;2022-07-18T07:53:03;6.75;;;2.53;;
18929;SDS011;43305;52.186;5.598;2022-07-18T07:55:34;9.05;;;2.50;;
18929;SDS011;43305;52.186;5.598;2022-07-18T07:58:02;5.43;;;2.53;;
18929;SDS011;43305;52.186;5.598;2022-07-18T08:00:30;6.47;;;2.40;;
18929;SDS011;43305;52.186;5.598;2022-07-18T08:02:58;6.50;;;2.67;;
18929;SDS011;43305;52.186;5.598;2022-07-18T08:05:27;9.07;;;2.65;;
18929;SDS011;43305;52.186;5.598;2022-07-18T08:07:56;10.98;;;2.55;;
18929;SDS011;43305;52.186;5.598;2022-07-18T08:10:28;6.80;;;2.45;;
18929;SDS011;43305;52.186;5.598;2022-07-18T08:12:55;5.53;;;2.50;;
18929;SDS011;43305;52.186;5.598;2022-07-18T08:15:23;10.05;;;2.67;;
18929;SDS011;43305;52.186;5.598;2022-07-18T08:17:50;11.55;;;2.55;;
18929;SDS011;43305;52.186;5.598;2022-07-18T08:20:17;9.30;;;2.30;;
18929;SDS011;43305;52.186;5.598;2022-07-18T08:22:52;12.60;;;2.70;;
18929;SDS011;43305;52.186;5.598;2022-07-18T08:25:21;6.10;;;2.55;;
18929;SDS011;43305;52.186;5.598;2022-07-18T08:27:49;10.70;;;2.40;;
18929;SDS011;43305;52.186;5.598;2022-07-18T08:30:16;8.05;;;2.50;;
18929;SDS011;43305;52.186;5.598;2022-07-18T08:32:43;7.47;;;2.40;;
18929;SDS011;43305;52.186;5.598;2022-07-18T08:35:10;15.13;;;2.50;;
18929;SDS011;43305;52.186;5.598;2022-07-18T08:37:39;7.97;;;2.35;;
18929;SDS011;43305;52.186;5.598;2022-07-18T08:40:12;6.32;;;2.25;;
18929;SDS011;43305;52.186;5.598;2022-07-18T08:42:41;6.25;;;2.10;;
18929;SDS011;43305;52.186;5.598;2022-07-18T08:45:10;8.15;;;2.28;;
18929;SDS011;43305;52.186;5.598;2022-07-18T08:47:37;5.40;;;2.17;;
18929;SDS011;43305;52.186;5.598;2022-07-18T08:50:04;8.85;;;2.30;;
18929;SDS011;43305;52.186;5.598;2022-07-18T08:52:32;6.13;;;2.10;;
18929;SDS011;43305;52.186;5.598;2022-07-18T08:55:00;7.97;;;2.20;;
18929;SDS011;43305;52.186;5.598;2022-07-18T08:57:27;9.35;;;2.08;;
18929;SDS011;43305;52.186;5.598;2022-07-18T08:59:57;6.85;;;2.50;;
18929;SDS011;43305;52.186;5.598;2022-07-18T09:02:25;8.55;;;2.17;;
18929;SDS011;43305;52.186;5.598;2022-07-18T09:04:52;4.78;;;2.00;;
18929;SDS011;43305;52.186;5.598;2022-07-18T09:07:23;8.30;;;1.95;;
18929;SDS011;43305;52.186;5.598;2022-07-18T09:09:53;5.07;;;1.90;;
18929;SDS011;43305;52.186;5.598;2022-07-18T09:12:21;3.90;;;2.03;;
18929;SDS011;43305;52.186;5.598;2022-07-18T09:14:48;6.00;;;1.75;;
18929;SDS011;43305;52.186;5.598;2022-07-18T09:17:16;6.18;;;1.70;;
18929;SDS011;43305;52.186;5.598;2022-07-18T09:19:57;4.38;;;1.70;;
18929;SDS011;43305;52.186;5.598;2022-07-18T09:22:25;7.03;;;1.90;;
18929;SDS011;43305;52.186;5.598;2022-07-18T09:24:55;6.65;;;1.80;;
18929;SDS011;43305;52.186;5.598;2022-07-18T09:27:26;6.28;;;1.80;;
18929;SDS011;43305;52.186;5.598;2022-07-18T09:32:42;6.10;;;1.83;;
18929;SDS011;43305;52.186;5.598;2022-07-18T09:35:13;10.98;;;2.30;;
18929;SDS011;43305;52.186;5.598;2022-07-18T09:37:51;4.43;;;1.80;;
18929;SDS011;43305;52.186;5.598;2022-07-18T09:40:24;4.30;;;1.80;;
18929;SDS011;43305;52.186;5.598;2022-07-18T09:42:58;4.38;;;1.70;;
18929;SDS011;43305;52.186;5.598;2022-07-18T09:45:27;7.88;;;2.10;;
18929;SDS011;43305;52.186;5.598;2022-07-18T09:47:58;8.82;;;1.90;;
18929;SDS011;43305;52.186;5.598;2022-07-18T09:50:29;9.38;;;1.70;;
18929;SDS011;43305;52.186;5.598;2022-07-18T09:52:59;4.60;;;1.70;;
18929;SDS011;43305;52.186;5.598;2022-07-18T09:55:32;5.60;;;2.28;;
18929;SDS011;43305;52.186;5.598;2022-07-18T09:58:02;6.03;;;2.00;;
18929;SDS011;43305;52.186;5.598;2022-07-18T10:00:32;6.00;;;1.90;;
18929;SDS011;43305;52.186;5.598;2022-07-18T10:03:00;6.88;;;2.10;;
18929;SDS011;43305;52.186;5.598;2022-07-18T10:05:42;6.30;;;2.13;;
18929;SDS011;43305;52.186;5.598;2022-07-18T10:08:11;6.60;;;1.90;;
18929;SDS011;43305;52.186;5.598;2022-07-18T10:10:40;7.40;;;2.22;;
18929;SDS011;43305;52.186;5.598;2022-07-18T10:13:11;9.98;;;2.00;;
18929;SDS011;43305;52.186;5.598;2022-07-18T10:15:42;6.53;;;1.95;;
18929;SDS011;43305;52.186;5.598;2022-07-18T10:18:13;7.88;;;2.00;;
18929;SDS011;43305;52.186;5.598;2022-07-18T10:20:44;8.15;;;2.05;;
18929;SDS011;43305;52.186;5.598;2022-07-18T10:23:16;5.80;;;1.80;;
18929;SDS011;43305;52.186;5.598;2022-07-18T10:28:36;4.50;;;1.98;;
18929;SDS011;43305;52.186;5.598;2022-07-18T10:31:38;5.10;;;1.90;;
18929;SDS011;43305;52.186;5.598;2022-07-18T10:34:28;3.17;;;1.67;;
18929;SDS011;43305;52.186;5.598;2022-07-18T10:39:49;5.82;;;2.05;;
18929;SDS011;43305;52.186;5.598;2022-07-18T10:42:20;5.13;;;1.70;;
18929;SDS011;43305;52.186;5.598;2022-07-18T10:44:49;4.97;;;1.77;;
18929;SDS011;43305;52.186;5.598;2022-07-18T10:47:18;2.88;;;1.50;;
18929;SDS011;43305;52.186;5.598;2022-07-18T10:55:44;5.05;;;2.10;;
18929;SDS011;43305;52.186;5.598;2022-07-18T10:58:15;5.78;;;1.70;;
18929;SDS011;43305;52.186;5.598;2022-07-18T11:00:48;5.10;;;1.80;;
18929;SDS011;43305;52.186;5.598;2022-07-18T11:03:25;3.85;;;1.40;;
18929;SDS011;43305;52.186;5.598;2022-07-18T11:20:29;3.30;;;1.70;;
18929;SDS011;43305;52.186;5.598;2022-07-18T11:23:02;3.80;;;1.63;;
18929;SDS011;43305;52.186;5.598;2022-07-18T11:25:30;3.63;;;1.92;;
18929;SDS011;43305;52.186;5.598;2022-07-18T11:27:59;3.33;;;1.88;;
18929;SDS011;43305;52.186;5.598;2022-07-18T11:33:27;7.60;;;2.10;;
18929;SDS011;43305;52.186;5.598;2022-07-18T11:36:02;4.30;;;2.10;;
18929;SDS011;43305;52.186;5.598;2022-07-18T11:38:29;6.05;;;2.05;;
18929;SDS011;43305;52.186;5.598;2022-07-18T11:40:56;6.93;;;2.00;;
18929;SDS011;43305;52.186;5.598;2022-07-18T11:43:23;7.32;;;2.47;;
18929;SDS011;43305;52.186;5.598;2022-07-18T11:46:01;6.15;;;2.03;;
18929;SDS011;43305;52.186;5.598;2022-07-18T11:48:29;4.63;;;2.25;;
18929;SDS011;43305;52.186;5.598;2022-07-18T11:50:56;6.15;;;2.22;;
18929;SDS011;43305;52.186;5.598;2022-07-18T11:53:23;6.82;;;2.60;;
18929;SDS011;43305;52.186;5.598;2022-07-18T11:55:51;8.40;;;2.30;;
18929;SDS011;43305;52.186;5.598;2022-07-18T11:58:19;5.32;;;2.45;;
18929;SDS011;43305;52.186;5.598;2022-07-18T12:00:47;4.55;;;2.30;;
18929;SDS011;43305;52.186;5.598;2022-07-18T12:03:26;7.45;;;2.38;;
18929;SDS011;43305;52.186;5.598;2022-07-18T12:05:53;5.18;;;2.45;;
18929;SDS011;43305;52.186;5.598;2022-07-18T12:08:27;6.68;;;2.72;;
18929;SDS011;43305;52.186;5.598;2022-07-18T12:11:03;5.97;;;2.28;;
18929;SDS011;43305;52.186;5.598;2022-07-18T12:13:40;7.15;;;2.47;;
18929;SDS011;43305;52.186;5.598;2022-07-18T12:16:20;5.65;;;2.50;;
18929;SDS011;43305;52.186;5.598;2022-07-18T12:18:56;4.60;;;1.92;;
18929;SDS011;43305;52.186;5.598;2022-07-18T12:24:19;7.15;;;2.28;;
18929;SDS011;43305;52.186;5.598;2022-07-18T12:32:27;5.57;;;2.30;;
18929;SDS011;43305;52.186;5.598;2022-07-18T12:34:59;6.47;;;2.03;;
18929;SDS011;43305;52.186;5.598;2022-07-18T12:37:27;4.55;;;1.85;;
18929;SDS011;43305;52.186;5.598;2022-07-18T12:39:55;3.20;;;1.90;;
18929;SDS011;43305;52.186;5.598;2022-07-18T12:42:27;5.10;;;2.25;;
18929;SDS011;43305;52.186;5.598;2022-07-18T12:44:55;6.13;;;1.90;;
18929;SDS011;43305;52.186;5.598;2022-07-18T12:47:22;4.25;;;1.90;;
18929;SDS011;43305;52.186;5.598;2022-07-18T12:49:48;8.25;;;2.05;;
18929;SDS011;43305;52.186;5.598;2022-07-18T12:52:16;7.40;;;2.00;;
18929;SDS011;43305;52.186;5.598;2022-07-18T12:54:43;6.28;;;1.73;;
18929;SDS011;43305;52.186;5.598;2022-07-18T12:57:10;4.85;;;2.05;;
18929;SDS011;43305;52.186;5.598;2022-07-18T12:59:37;6.35;;;1.90;;
18929;SDS011;43305;52.186;5.598;2022-07-18T13:02:05;3.95;;;2.03;;
18929;SDS011;43305;52.186;5.598;2022-07-18T13:04:32;5.07;;;2.08;;
18929;SDS011;43305;52.186;5.598;2022-07-18T13:06:58;5.75;;;1.83;;
18929;SDS011;43305;52.186;5.598;2022-07-18T13:09:27;3.35;;;1.80;;
18929;SDS011;43305;52.186;5.598;2022-07-18T13:11:54;4.90;;;1.70;;
18929;SDS011;43305;52.186;5.598;2022-07-18T13:14:21;9.40;;;1.92;;
18929;SDS011;43305;52.186;5.598;2022-07-18T13:16:47;4.03;;;1.88;;
18929;SDS011;43305;52.186;5.598;2022-07-18T13:19:17;5.70;;;1.80;;
18929;SDS011;43305;52.186;5.598;2022-07-18T13:21:45;6.57;;;1.85;;
18929;SDS011;43305;52.186;5.598;2022-07-18T13:24:13;2.53;;;1.60;;
18929;SDS011;43305;52.186;5.598;2022-07-18T13:26:43;6.97;;;1.85;;
18929;SDS011;43305;52.186;5.598;2022-07-18T13:29:10;7.88;;;2.05;;
18929;SDS011;43305;52.186;5.598;2022-07-18T13:31:39;5.53;;;2.00;;
18929;SDS011;43305;52.186;5.598;2022-07-18T13:34:09;4.18;;;1.95;;
18929;SDS011;43305;52.186;5.598;2022-07-18T13:36:36;3.78;;;1.58;;
18929;SDS011;43305;52.186;5.598;2022-07-18T13:39:03;3.05;;;1.92;;
18929;SDS011;43305;52.186;5.598;2022-07-18T13:41:29;3.78;;;2.00;;
18929;SDS011;43305;52.186;5.598;2022-07-18T13:43:58;4.13;;;1.88;;
18929;SDS011;43305;52.186;5.598;2022-07-18T13:46:24;3.35;;;1.90;;
18929;SDS011;43305;52.186;5.598;2022-07-18T13:48:51;2.90;;;1.80;;
18929;SDS011;43305;52.186;5.598;2022-07-18T13:51:18;3.65;;;1.90;;
18929;SDS011;43305;52.186;5.598;2022-07-18T13:53:45;3.83;;;1.92;;
18929;SDS011;43305;52.186;5.598;2022-07-18T13:56:11;2.90;;;1.88;;
18929;SDS011;43305;52.186;5.598;2022-07-18T13:58:44;3.33;;;1.77;;
18929;SDS011;43305;52.186;5.598;2022-07-18T14:01:13;4.35;;;1.80;;
18929;SDS011;43305;52.186;5.598;2022-07-18T14:03:40;4.50;;;1.90;;
18929;SDS011;43305;52.186;5.598;2022-07-18T14:06:07;2.67;;;2.13;;
18929;SDS011;43305;52.186;5.598;2022-07-18T14:08:55;2.67;;;1.70;;
18929;SDS011;43305;52.186;5.598;2022-07-18T14:11:25;6.45;;;2.00;;
18929;SDS011;43305;52.186;5.598;2022-07-18T14:13:55;5.38;;;2.05;;
18929;SDS011;43305;52.186;5.598;2022-07-18T14:16:26;4.07;;;2.22;;
18929;SDS011;43305;52.186;5.598;2022-07-18T14:18:53;2.90;;;1.90;;
18929;SDS011;43305;52.186;5.598;2022-07-18T14:21:19;6.68;;;2.00;;
18929;SDS011;43305;52.186;5.598;2022-07-18T14:23:46;4.88;;;1.70;;
18929;SDS011;43305;52.186;5.598;2022-07-18T14:26:13;2.55;;;1.90;;
18929;SDS011;43305;52.186;5.598;2022-07-18T14:28:41;3.72;;;1.95;;
18929;SDS011;43305;52.186;5.598;2022-07-18T14:31:08;6.00;;;2.00;;
18929;SDS011;43305;52.186;5.598;2022-07-18T14:33:36;4.82;;;2.00;;
18929;SDS011;43305;52.186;5.598;2022-07-18T14:36:03;4.25;;;1.90;;
18929;SDS011;43305;52.186;5.598;2022-07-18T14:38:30;2.58;;;1.80;;
18929;SDS011;43305;52.186;5.598;2022-07-18T14:40:57;5.65;;;2.38;;
18929;SDS011;43305;52.186;5.598;2022-07-18T14:43:25;6.47;;;2.03;;
18929;SDS011;43305;52.186;5.598;2022-07-18T14:45:53;5.03;;;2.22;;
18929;SDS011;43305;52.186;5.598;2022-07-18T14:48:21;6.75;;;1.90;;
18929;SDS011;43305;52.186;5.598;2022-07-18T14:50:50;4.85;;;2.08;;
18929;SDS011;43305;52.186;5.598;2022-07-18T14:53:16;3.38;;;1.83;;
18929;SDS011;43305;52.186;5.598;2022-07-18T14:55:43;4.47;;;2.08;;
18929;SDS011;43305;52.186;5.598;2022-07-18T14:58:10;4.18;;;2.00;;
18929;SDS011;43305;52.186;5.598;2022-07-18T15:00:40;3.63;;;2.25;;
18929;SDS011;43305;52.186;5.598;2022-07-18T15:03:06;3.75;;;1.90;;
18929;SDS011;43305;52.186;5.598;2022-07-18T15:05:33;4.72;;;2.10;;
18929;SDS011;43305;52.186;5.598;2022-07-18T15:08:01;3.80;;;1.85;;
18929;SDS011;43305;52.186;5.598;2022-07-18T15:10:28;3.80;;;1.83;;
18929;SDS011;43305;52.186;5.598;2022-07-18T15:12:57;4.43;;;1.88;;
18929;SDS011;43305;52.186;5.598;2022-07-18T15:15:26;4.18;;;2.30;;
18929;SDS011;43305;52.186;5.598;2022-07-18T15:17:53;2.92;;;1.90;;
18929;SDS011;43305;52.186;5.598;2022-07-18T15:20:20;2.80;;;1.83;;
18929;SDS011;43305;52.186;5.598;2022-07-18T15:22:47;3.17;;;2.03;;
18929;SDS011;43305;52.186;5.598;2022-07-18T15:25:15;18.98;;;2.42;;
18929;SDS011;43305;52.186;5.598;2022-07-18T15:27:42;4.43;;;1.92;;
18929;SDS011;43305;52.186;5.598;2022-07-18T15:30:09;2.72;;;1.77;;
18929;SDS011;43305;52.186;5.598;2022-07-18T15:32:36;3.97;;;2.03;;
18929;SDS011;43305;52.186;5.598;2022-07-18T15:35:03;5.97;;;2.00;;